createdAt,value
2022-08-02T00:02:08.734Z,100436.59
2022-08-02T00:05:14.379Z,100432.34
2022-08-02T00:08:17.424Z,100432.59
2022-08-02T00:11:20.766Z,100435.88
2022-08-02T00:14:23.662Z,100434.66
2022-08-02T00:17:27.156Z,100430.53
2022-08-02T00:20:31.547Z,100431.19
2022-08-02T00:23:34.794Z,100434.31
2022-08-02T00:26:57.566Z,100430.84
2022-08-02T00:30:00.825Z,100427.47
2022-08-02T00:33:05.562Z,100428.00
2022-08-02T00:36:10.167Z,100432.25
2022-08-02T00:39:33.490Z,100436.41
2022-08-02T00:42:36.097Z,100446.88
2022-08-02T00:46:03.416Z,100439.91
2022-08-02T00:49:04.827Z,100449.38
2022-08-02T00:52:11.150Z,100453.13
2022-08-02T00:55:17.373Z,100443.88
2022-08-02T00:58:21.827Z,100445.66
2022-08-02T01:01:38.843Z,100451.13
2022-08-02T01:05:01.010Z,100449.16
2022-08-02T01:08:05.356Z,100459.38
2022-08-02T01:11:08.559Z,100452.25
2022-08-02T01:14:15.152Z,100457.75
2022-08-02T01:17:24.541Z,100446.66
2022-08-02T01:20:54.630Z,100450.75
2022-08-02T01:24:18.323Z,100456.63
2022-08-02T01:27:41.525Z,100452.84
2022-08-02T01:30:48.975Z,100452.38
2022-08-02T01:34:00.499Z,100465.72
2022-08-02T01:37:07.112Z,100462.31
2022-08-02T01:40:13.424Z,100468.06
2022-08-02T01:43:18.360Z,100477.31
2022-08-02T01:46:24.615Z,100470.81
2022-08-02T01:49:31.254Z,100480.91
2022-08-02T01:52:38.561Z,100483.53
2022-08-02T01:55:57.753Z,100487.16
2022-08-02T01:59:03.161Z,100481.69
2022-08-02T02:02:09.878Z,100481.69
2022-08-02T02:05:15.845Z,100473.81
2022-08-02T02:08:27.311Z,100460.03
2022-08-02T02:12:09.627Z,100473.44
2022-08-02T02:14:55.760Z,100475.41
2022-08-02T02:18:13.066Z,100472.78
2022-08-02T02:21:17.123Z,100461.03
2022-08-02T02:24:19.906Z,100471.41
2022-08-02T02:27:25.184Z,100468.00
2022-08-02T02:30:30.374Z,100466.75
2022-08-02T02:33:36.428Z,100459.88
2022-08-02T02:36:41.307Z,100458.47
2022-08-02T02:39:46.039Z,100463.97
2022-08-02T02:42:49.873Z,100465.44
2022-08-02T02:45:54.111Z,100461.41
2022-08-02T02:48:59.856Z,100462.47
2022-08-02T02:52:04.020Z,100467.47
2022-08-02T02:55:11.513Z,100462.34
2022-08-02T02:58:14.979Z,100462.78
2022-08-02T03:01:53.117Z,100460.78
2022-08-02T03:04:58.272Z,100452.88
2022-08-02T03:08:01.608Z,100458.72
2022-08-02T03:11:05.261Z,100459.94
2022-08-02T03:14:12.449Z,100460.19
2022-08-02T03:17:16.461Z,100459.44
2022-08-02T03:20:23.010Z,100454.16
2022-08-02T03:23:25.717Z,100462.38
2022-08-02T03:26:28.865Z,100462.63
2022-08-02T03:29:34.656Z,100460.22
2022-08-02T03:32:40.088Z,100470.56
2022-08-02T03:35:45.048Z,100467.06
2022-08-02T03:38:48.925Z,100483.72
2022-08-02T03:41:52.272Z,100477.47
2022-08-02T03:44:57.562Z,100482.94
2022-08-02T03:48:01.115Z,100479.47
2022-08-02T03:51:07.373Z,100487.69
2022-08-02T03:54:11.313Z,100484.81
2022-08-02T03:57:15.452Z,100489.19
2022-08-02T04:00:21.334Z,100476.72
2022-08-02T04:03:24.011Z,100488.00
2022-08-02T04:06:28.610Z,100476.91
2022-08-02T04:09:31.978Z,100481.63
2022-08-02T04:12:34.968Z,100480.97
2022-08-02T04:15:39.651Z,100491.06
2022-08-02T04:18:50.592Z,100489.75
2022-08-02T04:21:55.910Z,100471.56
2022-08-02T04:25:03.091Z,100489.97
2022-08-02T04:28:16.675Z,100501.25
2022-08-02T04:31:21.681Z,100493.50
2022-08-02T04:34:24.607Z,100506.03
2022-08-02T04:37:30.746Z,100506.56
2022-08-02T04:40:34.014Z,100499.97
2022-08-02T04:43:36.839Z,100503.59
2022-08-02T04:46:41.022Z,100500.75
2022-08-02T04:49:43.904Z,100501.38
2022-08-02T04:52:48.557Z,100502.03
2022-08-02T04:55:51.478Z,100509.78
2022-08-02T04:58:56.032Z,100506.69
2022-08-02T05:01:58.703Z,100494.50
2022-08-02T05:05:04.610Z,100502.50
2022-08-02T05:08:11.381Z,100510.81
2022-08-02T05:11:14.528Z,100504.63
2022-08-02T05:14:17.417Z,100506.16
2022-08-02T05:17:20.672Z,100510.19
2022-08-02T05:20:23.402Z,100508.66
2022-08-02T05:23:27.535Z,100512.09
2022-08-02T05:26:31.065Z,100510.75
2022-08-02T05:29:34.137Z,100503.38
2022-08-02T05:32:43.358Z,100502.50
2022-08-02T05:35:48.548Z,100513.63
2022-08-02T05:38:53.232Z,100510.38
2022-08-02T05:42:05.909Z,100505.06
2022-08-02T05:45:15.416Z,100497.81
2022-08-02T05:48:27.817Z,100493.97
2022-08-02T05:51:41.820Z,100489.22
2022-08-02T05:54:55.994Z,100473.50
2022-08-02T05:58:07.365Z,100466.63
2022-08-02T06:01:19.027Z,100461.59
2022-08-02T06:04:27.645Z,100456.00
2022-08-02T06:07:32.257Z,100459.84
2022-08-02T06:10:40.710Z,100462.25
2022-08-02T06:13:49.232Z,100454.06
2022-08-02T06:16:54.741Z,100461.50
2022-08-02T06:19:58.889Z,100459.44
2022-08-02T06:23:02.915Z,100460.94
2022-08-02T06:26:10.325Z,100459.00
2022-08-02T06:29:14.110Z,100457.16
2022-08-02T06:32:19.451Z,100446.72
2022-08-02T06:35:22.890Z,100456.03
2022-08-02T06:38:30.104Z,100453.50
2022-08-02T06:41:43.642Z,100444.97
2022-08-02T06:44:48.714Z,100441.78
2022-08-02T06:47:52.984Z,100441.53
2022-08-02T06:50:55.764Z,100439.66
2022-08-02T06:53:58.513Z,100434.16
2022-08-02T06:57:03.040Z,100433.00
2022-08-02T07:00:09.487Z,100433.53
2022-08-02T07:03:12.518Z,100418.47
2022-08-02T07:06:15.841Z,100435.69
2022-08-02T07:09:21.017Z,100445.13
2022-08-02T07:12:26.176Z,100451.94
2022-08-02T07:15:29.069Z,100447.88
2022-08-02T07:18:32.589Z,100438.63
2022-08-02T07:21:56.947Z,100437.47
2022-08-02T07:25:00.942Z,100434.72
2022-08-02T07:28:05.842Z,100436.13
2022-08-02T07:31:08.559Z,100437.44
2022-08-02T07:34:11.496Z,100435.44
2022-08-02T07:37:35.992Z,100416.31
2022-08-02T07:40:37.926Z,100435.81
2022-08-02T07:43:43.892Z,100434.63
2022-08-02T07:46:47.227Z,100437.31
2022-08-02T07:49:50.477Z,100436.44
2022-08-02T07:52:57.280Z,100436.25
2022-08-02T07:56:00.857Z,100414.53
2022-08-02T07:59:05.025Z,100420.84
2022-08-02T08:02:08.457Z,100426.50
2022-08-02T08:05:12.022Z,100430.00
2022-08-02T08:08:17.564Z,100421.22
2022-08-02T08:11:20.599Z,100422.28
2022-08-02T08:14:24.668Z,100425.16
2022-08-02T08:17:27.483Z,100438.41
2022-08-02T08:20:30.752Z,100433.09
2022-08-02T08:23:34.011Z,100430.84
2022-08-02T08:26:36.723Z,100430.69
2022-08-02T08:29:41.626Z,100444.81
2022-08-02T08:32:44.473Z,100444.34
2022-08-02T08:35:48.215Z,100446.34
2022-08-02T08:38:51.184Z,100444.47
2022-08-02T08:41:53.886Z,100435.47
2022-08-02T08:44:58.598Z,100429.59
2022-08-02T08:48:02.933Z,100423.00
2022-08-02T08:51:09.017Z,100426.34
2022-08-02T08:54:16.319Z,100426.00
2022-08-02T08:57:20.669Z,100424.81
2022-08-02T09:00:24.822Z,100421.94
2022-08-02T09:03:27.533Z,100429.91
2022-08-02T09:06:36.829Z,100426.66
2022-08-02T09:09:39.680Z,100428.66
2022-08-02T09:12:42.429Z,100433.34
2022-08-02T09:15:53.931Z,100418.66
2022-08-02T09:18:57.007Z,100416.22
2022-08-02T09:22:03.891Z,100399.53
2022-08-02T09:25:16.630Z,100412.09
2022-08-02T09:28:19.780Z,100413.91
2022-08-02T09:31:25.097Z,100413.69
2022-08-02T09:34:44.206Z,100398.94
2022-08-02T09:37:48.716Z,100400.75
2022-08-02T09:40:51.459Z,100413.97
2022-08-02T09:44:05.260Z,100392.84
2022-08-02T09:47:17.647Z,100413.25
2022-08-02T09:50:20.594Z,100414.72
2022-08-02T09:53:24.895Z,100405.16
2022-08-02T09:56:40.826Z,100397.16
2022-08-02T09:59:54.571Z,100395.91
2022-08-02T10:03:22.248Z,100395.94
2022-08-02T10:06:26.263Z,100390.38
2022-08-02T10:09:29.706Z,100393.53
2022-08-02T10:12:32.734Z,100392.75
2022-08-02T10:15:36.240Z,100387.91
2022-08-02T10:18:41.448Z,100383.41
2022-08-02T10:21:48.230Z,100378.88
2022-08-02T10:24:53.129Z,100377.16
2022-08-02T10:28:05.239Z,100377.88
2022-08-02T10:31:11.138Z,100372.13
2022-08-02T10:34:19.894Z,100372.66
2022-08-02T10:37:31.120Z,100368.84
2022-08-02T10:40:45.339Z,100369.75
2022-08-02T10:43:51.289Z,100372.50
2022-08-02T10:47:15.236Z,100364.22
2022-08-02T10:50:19.572Z,100362.47
2022-08-02T10:53:27.109Z,100352.38
2022-08-02T10:56:47.661Z,100346.78
2022-08-02T10:59:53.032Z,100338.59
2022-08-02T11:02:55.892Z,100347.50
2022-08-02T11:06:05.428Z,100337.09
2022-08-02T11:09:31.981Z,100334.50
2022-08-02T11:13:03.480Z,100340.94
2022-08-02T11:16:11.490Z,100339.00
2022-08-02T11:19:15.164Z,100336.69
2022-08-02T11:22:25.210Z,100337.34
2022-08-02T11:26:00.966Z,100319.22
2022-08-02T11:28:57.253Z,100318.81
2022-08-02T11:32:00.183Z,100319.63
2022-08-02T11:35:04.353Z,100303.03
2022-08-02T11:38:16.559Z,100310.59
2022-08-02T11:41:47.000Z,100304.84
2022-08-02T11:44:43.662Z,100299.50
2022-08-02T11:47:47.437Z,100294.13
2022-08-02T11:51:04.136Z,100295.78
2022-08-02T11:54:08.545Z,100296.06
2022-08-02T11:57:18.509Z,100297.06
2022-08-02T12:00:23.500Z,100296.81
2022-08-02T12:03:36.659Z,100294.31
2022-08-02T12:06:39.474Z,100300.72
2022-08-02T12:09:44.345Z,100297.69
2022-08-02T12:12:51.796Z,100293.59
2022-08-02T12:16:16.592Z,100285.16
2022-08-02T12:19:19.199Z,100280.81
2022-08-02T12:22:27.255Z,100287.84
2022-08-02T12:25:34.694Z,100285.44
2022-08-02T12:28:40.472Z,100290.63
2022-08-02T12:31:57.593Z,100292.84
2022-08-02T12:35:10.476Z,100288.53
2022-08-02T12:38:13.879Z,100285.00
2022-08-02T12:41:30.899Z,100280.38
2022-08-02T12:44:37.111Z,100278.84
2022-08-02T12:47:48.825Z,100273.16
2022-08-02T12:50:51.789Z,100273.56
2022-08-02T12:53:59.965Z,100264.91
2022-08-02T12:57:12.728Z,100257.75
2022-08-02T13:00:24.519Z,100253.09
2022-08-02T13:04:10.851Z,100257.84
2022-08-02T13:06:50.479Z,100259.03
2022-08-02T13:10:02.651Z,100257.88
2022-08-02T13:13:07.623Z,100256.88
2022-08-02T13:16:11.725Z,100246.19
2022-08-02T13:19:15.941Z,100249.22
2022-08-02T13:22:19.226Z,100261.72
2022-08-02T13:25:23.271Z,100258.53
2022-08-02T13:28:27.917Z,100243.28
2022-08-02T13:31:36.609Z,100243.22
2022-08-02T13:34:40.063Z,100244.94
2022-08-02T13:37:43.059Z,100242.16
2022-08-02T13:41:04.830Z,100232.50
2022-08-02T13:44:10.931Z,100228.94
2022-08-02T13:47:13.967Z,100233.09
2022-08-02T13:50:17.472Z,100230.34
2022-08-02T13:53:20.356Z,100231.28
2022-08-02T13:56:35.487Z,100221.09
2022-08-02T13:59:57.199Z,100218.78
2022-08-02T14:03:01.602Z,100204.31
2022-08-02T14:06:06.696Z,100208.94
2022-08-02T14:09:09.596Z,100214.72
2022-08-02T14:12:18.411Z,100218.28
2022-08-02T14:15:22.875Z,100203.66
2022-08-02T14:18:25.577Z,100206.19
2022-08-02T14:21:28.328Z,100202.78
2022-08-02T14:24:31.948Z,100209.53
2022-08-02T14:27:38.663Z,100194.50
2022-08-02T14:30:44.054Z,100190.88
2022-08-02T14:33:46.789Z,100186.84
2022-08-02T14:36:53.644Z,100173.28
2022-08-02T14:40:00.532Z,100186.97
2022-08-02T14:43:04.496Z,100174.69
2022-08-02T14:46:09.404Z,100178.09
2022-08-02T14:49:14.619Z,100161.09
2022-08-02T14:52:27.073Z,100169.16
2022-08-02T14:55:29.791Z,100162.75
2022-08-02T14:58:32.758Z,100168.78
2022-08-02T15:01:37.663Z,100169.22
2022-08-02T15:04:42.656Z,100167.44
2022-08-02T15:07:49.517Z,100165.91
2022-08-02T15:10:52.568Z,100152.78
2022-08-02T15:13:55.246Z,100164.44
2022-08-02T15:17:03.036Z,100158.28
2022-08-02T15:20:25.843Z,100150.78
2022-08-02T15:23:37.575Z,100154.41
2022-08-02T15:26:41.327Z,100161.25
2022-08-02T15:29:45.897Z,100159.28
2022-08-02T15:32:53.008Z,100151.81
2022-08-02T15:35:56.434Z,100151.72
2022-08-02T15:38:59.257Z,100146.69
2022-08-02T15:42:02.058Z,100148.97
2022-08-02T15:45:05.493Z,100153.75
2022-08-02T15:48:09.714Z,100145.81
2022-08-02T15:51:12.496Z,100150.75
2022-08-02T15:54:15.240Z,100160.34
2022-08-02T15:57:17.916Z,100154.41
2022-08-02T16:00:22.417Z,100155.97
2022-08-02T16:03:26.424Z,100158.53
2022-08-02T16:06:29.421Z,100155.63
2022-08-02T16:09:32.482Z,100161.03
2022-08-02T16:12:35.157Z,100158.56
2022-08-02T16:15:38.346Z,100152.56
2022-08-02T16:18:42.537Z,100165.78
2022-08-02T16:21:45.384Z,100161.00
2022-08-02T16:24:48.341Z,100165.44
2022-08-02T16:27:57.865Z,100161.69
2022-08-02T16:31:11.652Z,100159.63
2022-08-02T16:34:15.963Z,100166.41
2022-08-02T16:37:18.653Z,100166.03
2022-08-02T16:40:22.100Z,100165.00
2022-08-02T16:43:25.165Z,100161.75
2022-08-02T16:46:30.356Z,100163.19
2022-08-02T16:50:04.699Z,100157.72
2022-08-02T16:52:58.870Z,100161.38
2022-08-02T16:56:01.804Z,100165.13
2022-08-02T16:59:04.677Z,100163.88
2022-08-02T17:02:18.358Z,100162.63
2022-08-02T17:05:24.122Z,100160.63
2022-08-02T17:08:40.489Z,100161.00
2022-08-02T17:11:57.868Z,100160.81
2022-08-02T17:16:08.351Z,100162.38
2022-08-02T17:18:26.749Z,100167.25
2022-08-02T17:21:31.852Z,100167.81
2022-08-02T17:24:34.731Z,100164.94
2022-08-02T17:27:37.698Z,100161.38
2022-08-02T17:30:40.759Z,100152.16
2022-08-02T17:33:43.696Z,100161.81
2022-08-02T17:36:49.749Z,100157.75
2022-08-02T17:39:52.611Z,100165.22
2022-08-02T17:42:55.729Z,100169.69
2022-08-02T17:46:02.630Z,100175.16
2022-08-02T17:49:20.633Z,100175.09
2022-08-02T17:52:51.281Z,100181.28
2022-08-02T17:55:50.937Z,100181.72
2022-08-02T17:58:54.143Z,100178.81
2022-08-02T18:01:58.679Z,100177.16
2022-08-02T18:05:11.865Z,100180.88
2022-08-02T18:08:21.285Z,100193.09
2022-08-02T18:11:52.014Z,100192.75
2022-08-02T18:14:49.344Z,100200.09
2022-08-02T18:17:54.724Z,100201.47
2022-08-02T18:21:15.994Z,100199.41
2022-08-02T18:24:25.819Z,100206.69
2022-08-02T18:27:31.588Z,100210.47
2022-08-02T18:30:35.625Z,100209.44
2022-08-02T18:34:00.517Z,100217.03
2022-08-02T18:37:01.825Z,100212.88
2022-08-02T18:40:07.013Z,100218.03
2022-08-02T18:43:09.821Z,100225.81
2022-08-02T18:46:20.208Z,100215.84
2022-08-02T18:49:24.059Z,100223.13
2022-08-02T18:52:32.838Z,100224.13
2022-08-02T18:55:59.817Z,100225.09
2022-08-02T18:59:02.927Z,100232.31
2022-08-02T19:02:06.033Z,100232.34
2022-08-02T19:05:10.492Z,100230.91
2022-08-02T19:08:13.200Z,100214.31
2022-08-02T19:11:17.216Z,100224.84
2022-08-02T19:14:27.512Z,100227.38
2022-08-02T19:17:55.317Z,100232.16
2022-08-02T19:20:53.661Z,100242.47
2022-08-02T19:23:56.779Z,100244.81
2022-08-02T19:27:13.361Z,100238.00
2022-08-02T19:30:19.550Z,100244.34
2022-08-02T19:33:54.380Z,100241.16
2022-08-02T19:36:47.569Z,100242.97
2022-08-02T19:39:50.525Z,100248.59
2022-08-02T19:44:21.767Z,100258.22
2022-08-02T19:46:20.632Z,100250.69
2022-08-02T19:49:39.717Z,100245.94
2022-08-02T19:52:43.930Z,100258.66
2022-08-02T19:55:58.342Z,100262.47
2022-08-02T19:59:12.990Z,100269.22
2022-08-02T20:02:18.349Z,100268.69
2022-08-02T20:05:24.068Z,100277.19
2022-08-02T20:08:31.725Z,100270.69
2022-08-02T20:11:38.709Z,100281.28
2022-08-02T20:14:51.239Z,100277.97
2022-08-02T20:17:54.439Z,100279.47
2022-08-02T20:20:57.303Z,100272.75
2022-08-02T20:24:00.241Z,100263.31
2022-08-02T20:27:04.458Z,100236.78
2022-08-02T20:30:09.660Z,100268.00
2022-08-02T20:33:21.758Z,100274.09
2022-08-02T20:36:25.574Z,100258.84
2022-08-02T20:39:43.461Z,100269.44
2022-08-02T20:42:47.797Z,100271.06
2022-08-02T20:45:52.441Z,100274.56
2022-08-02T20:48:59.475Z,100275.44
2022-08-02T20:52:23.851Z,100275.59
2022-08-02T20:55:30.841Z,100274.25
2022-08-02T20:58:34.336Z,100272.94
2022-08-02T21:01:38.925Z,100279.91
2022-08-02T21:04:42.637Z,100275.97
2022-08-02T21:07:47.828Z,100271.00
2022-08-02T21:10:57.037Z,100265.94
2022-08-02T21:14:08.544Z,100265.50
2022-08-02T21:17:17.986Z,100277.97
2022-08-02T21:20:27.464Z,100282.31
2022-08-02T21:23:36.654Z,100280.13
2022-08-02T21:26:39.478Z,100278.19
2022-08-02T21:29:43.581Z,100275.13
2022-08-02T21:32:50.560Z,100280.03
2022-08-02T21:35:54.398Z,100277.84
2022-08-02T21:38:57.939Z,100278.38
2022-08-02T21:42:00.705Z,100274.44
2022-08-02T21:45:16.863Z,100276.72
2022-08-02T21:48:21.883Z,100270.78
2022-08-02T21:51:29.302Z,100286.09
2022-08-02T21:54:40.485Z,100281.41
2022-08-02T21:57:43.740Z,100282.41
2022-08-02T22:00:46.967Z,100284.25
2022-08-02T22:03:55.621Z,100292.16
2022-08-02T22:06:58.981Z,100296.22
2022-08-02T22:10:01.709Z,100295.59
2022-08-02T22:13:05.464Z,100299.50
2022-08-02T22:16:18.325Z,100306.28
2022-08-02T22:19:23.029Z,100305.97
2022-08-02T22:22:28.369Z,100315.47
2022-08-02T22:25:37.336Z,100323.09
2022-08-02T22:28:50.497Z,100324.97
2022-08-02T22:31:55.695Z,100326.34
2022-08-02T22:34:59.712Z,100319.63
2022-08-02T22:38:17.311Z,100321.06
2022-08-02T22:41:22.410Z,100328.69
2022-08-02T22:44:25.396Z,100331.84
2022-08-02T22:47:28.374Z,100324.13
2022-08-02T22:50:42.677Z,100320.88
2022-08-02T22:53:46.548Z,100330.63
2022-08-02T22:56:49.296Z,100332.91
2022-08-02T22:59:52.367Z,100335.31
2022-08-02T23:02:55.131Z,100334.81
2022-08-02T23:05:59.777Z,100333.22
2022-08-02T23:09:02.643Z,100333.47
2022-08-02T23:12:06.168Z,100329.97
2022-08-02T23:15:10.450Z,100329.47
2022-08-02T23:18:30.582Z,100334.34
2022-08-02T23:21:45.695Z,100336.56
2022-08-02T23:24:58.804Z,100331.31
2022-08-02T23:28:01.714Z,100335.22
2022-08-02T23:31:32.165Z,100334.72
2022-08-02T23:34:34.997Z,100337.72
2022-08-02T23:37:59.943Z,100342.47
2022-08-02T23:41:04.469Z,100349.31
2022-08-02T23:44:15.177Z,100321.63
2022-08-02T23:47:18.229Z,100346.59
2022-08-02T23:50:21.603Z,100345.94
2022-08-02T23:53:25.734Z,100347.09
2022-08-02T23:56:29.284Z,100357.44
2022-08-02T23:59:33.001Z,100359.69
